createdAt,value
2018-07-06T00:02:22.491Z,52.11
2018-07-06T00:05:13.676Z,52.52
2018-07-06T00:07:53.170Z,51.96
2018-07-06T00:10:32.837Z,52.84
2018-07-06T00:13:12.361Z,52.11
2018-07-06T00:15:57.300Z,52.73
2018-07-06T00:18:36.950Z,52.37
2018-07-06T00:21:16.713Z,53.02
2018-07-06T00:23:56.332Z,52.61
2018-07-06T00:26:47.529Z,53.20
2018-07-06T00:29:27.397Z,53.33
2018-07-06T00:32:06.937Z,53.33
2018-07-06T00:34:49.137Z,52.91
2018-07-06T00:37:28.649Z,53.50
2018-07-06T00:40:08.348Z,53.35
2018-07-06T00:42:47.927Z,53.39
2018-07-06T00:57:03.235Z,53.72
2018-07-06T00:59:42.681Z,54.04
2018-07-06T01:02:22.157Z,54.45
2018-07-06T01:05:05.741Z,54.63
2018-07-06T01:07:45.405Z,54.90
2018-07-06T01:10:24.849Z,54.48
2018-07-06T01:13:04.357Z,55.12
2018-07-06T01:15:43.970Z,55.56
2018-07-06T01:18:23.722Z,54.94
2018-07-06T01:21:03.182Z,55.74
2018-07-06T01:23:42.623Z,55.36
2018-07-06T01:26:26.057Z,55.55
2018-07-06T01:29:05.775Z,55.57
2018-07-06T01:31:45.262Z,55.45
2018-07-06T01:34:24.991Z,55.66
2018-07-06T01:37:04.677Z,55.19
2018-07-06T01:39:44.296Z,55.99
2018-07-06T01:42:24.304Z,55.37
2018-07-06T01:48:08.036Z,56.17
2018-07-06T01:50:47.793Z,56.54
2018-07-06T01:53:27.543Z,55.88
2018-07-06T02:04:47.581Z,55.98
2018-07-06T02:07:27.987Z,55.91
2018-07-06T02:10:07.825Z,55.60
2018-07-06T02:12:47.605Z,55.92
2018-07-06T02:15:27.411Z,55.33
2018-07-06T02:18:06.978Z,55.71
2018-07-06T02:20:46.576Z,55.32
2018-07-06T02:23:26.073Z,55.52
2018-07-06T02:26:05.629Z,55.60
2018-07-06T02:28:45.681Z,55.18
2018-07-06T02:31:25.349Z,55.57
2018-07-06T02:34:05.018Z,55.98
2018-07-06T02:36:44.613Z,56.03
2018-07-06T02:39:24.197Z,55.54
2018-07-06T02:42:03.869Z,55.96
2018-07-06T02:44:43.589Z,56.06
2018-07-06T02:47:23.383Z,56.14
2018-07-06T02:50:03.320Z,56.03
2018-07-06T02:52:43.948Z,56.03
2018-07-06T02:58:16.514Z,56.83
2018-07-06T03:00:56.140Z,57.08
2018-07-06T03:03:35.762Z,57.10
2018-07-06T03:06:15.359Z,57.84
2018-07-06T03:08:55.074Z,58.14
2018-07-06T03:11:35.123Z,58.27
2018-07-06T03:14:14.895Z,58.27
2018-07-06T03:16:54.687Z,58.98
2018-07-06T03:19:34.317Z,58.37
2018-07-06T03:22:14.019Z,58.67
2018-07-06T03:24:53.728Z,58.92
2018-07-06T03:27:33.711Z,58.58
2018-07-06T03:30:13.530Z,58.95
2018-07-06T03:32:53.112Z,58.85
2018-07-06T03:35:33.173Z,59.37
2018-07-06T03:38:12.933Z,58.90
2018-07-06T03:40:52.650Z,58.99
2018-07-06T03:43:32.354Z,58.66
2018-07-06T03:46:15.940Z,58.33
2018-07-06T03:48:55.481Z,58.14
2018-07-06T03:51:35.214Z,58.57
2018-07-06T03:54:14.960Z,58.08
2018-07-06T03:56:54.764Z,57.52
2018-07-06T03:59:34.555Z,57.32
2018-07-06T04:02:14.158Z,57.72
2018-07-06T04:04:53.741Z,57.54
2018-07-06T04:07:33.486Z,59.06
2018-07-06T04:10:13.184Z,59.18
2018-07-06T04:12:52.730Z,59.12
2018-07-06T04:15:32.165Z,58.66
2018-07-06T04:18:11.766Z,58.40
2018-07-06T04:20:52.472Z,58.36
2018-07-06T04:23:32.090Z,58.84
2018-07-06T04:26:17.040Z,58.86
2018-07-06T04:28:56.796Z,58.67
2018-07-06T04:31:36.444Z,58.12
2018-07-06T04:34:16.260Z,58.53
2018-07-06T04:36:56.006Z,58.25
2018-07-06T04:39:35.754Z,58.65
2018-07-06T04:42:15.399Z,58.48
2018-07-06T04:44:54.943Z,59.22
2018-07-06T04:47:34.557Z,59.48
2018-07-06T04:50:14.119Z,58.37
2018-07-06T04:52:53.834Z,58.77
2018-07-06T04:55:33.417Z,58.87
2018-07-06T04:58:13.157Z,58.65
2018-07-06T05:00:52.909Z,59.02
2018-07-06T05:03:32.672Z,58.34
2018-07-06T05:06:13.457Z,58.25
2018-07-06T05:08:53.163Z,57.87
2018-07-06T05:11:32.966Z,58.09
2018-07-06T05:14:12.640Z,59.07
2018-07-06T05:16:52.210Z,58.17
2018-07-06T05:19:31.919Z,58.45
2018-07-06T05:22:11.906Z,58.50
2018-07-06T05:24:51.646Z,59.21
2018-07-06T05:27:31.379Z,59.51
2018-07-06T05:30:11.077Z,59.76
2018-07-06T05:32:50.798Z,59.54
2018-07-06T05:35:35.643Z,59.25
2018-07-06T05:38:15.373Z,59.36
2018-07-06T05:40:55.017Z,59.97
2018-07-06T05:43:34.866Z,60.27
2018-07-06T05:46:14.591Z,60.00
2018-07-06T05:48:54.578Z,59.85
2018-07-06T05:51:34.293Z,59.73
2018-07-06T05:54:07.429Z,60.29
2018-07-06T05:56:40.795Z,60.12
2018-07-06T05:59:20.349Z,59.75
2018-07-06T06:01:59.943Z,59.99
2018-07-06T06:04:39.425Z,60.15
2018-07-06T06:07:19.132Z,59.80
2018-07-06T06:09:47.595Z,60.03
2018-07-06T06:12:16.395Z,59.98
2018-07-06T06:14:45.099Z,59.54
2018-07-06T06:17:13.687Z,60.14
2018-07-06T06:19:42.259Z,60.02
2018-07-06T06:22:10.877Z,59.65
2018-07-06T06:24:39.402Z,59.84
2018-07-06T06:27:08.011Z,59.76
2018-07-06T06:29:37.177Z,59.64
2018-07-06T06:32:06.441Z,59.65
2018-07-06T06:34:35.759Z,58.81
2018-07-06T06:37:04.348Z,58.86
2018-07-06T06:39:33.680Z,58.82
2018-07-06T06:42:02.447Z,58.54
2018-07-06T06:44:31.432Z,58.39
2018-07-06T06:47:01.112Z,58.17
2018-07-06T06:49:31.053Z,58.51
2018-07-06T06:52:00.369Z,57.36
2018-07-06T06:54:29.267Z,57.33
2018-07-06T06:57:02.884Z,57.89
2018-07-06T06:59:31.507Z,57.30
2018-07-06T07:02:00.496Z,57.85
2018-07-06T07:04:29.023Z,57.65
2018-07-06T07:07:06.967Z,57.86
2018-07-06T07:09:35.619Z,58.10
2018-07-06T07:12:04.199Z,57.23
2018-07-06T07:14:32.855Z,57.45
2018-07-06T07:17:01.327Z,57.57
2018-07-06T07:19:30.010Z,57.56
2018-07-06T07:21:58.805Z,57.45
2018-07-06T07:24:27.435Z,57.90
2018-07-06T07:26:56.541Z,57.61
2018-07-06T07:29:25.099Z,57.84
2018-07-06T07:31:53.935Z,57.33
2018-07-06T07:34:23.186Z,58.12
2018-07-06T07:36:51.874Z,58.00
2018-07-06T07:39:20.407Z,57.47
2018-07-06T07:41:49.013Z,57.60
2018-07-06T07:44:17.560Z,57.35
2018-07-06T07:46:46.183Z,57.28
2018-07-06T07:49:14.703Z,56.68
2018-07-06T07:51:56.457Z,57.56
2018-07-06T07:54:34.226Z,56.94
2018-07-06T07:57:03.301Z,57.19
2018-07-06T07:59:33.549Z,56.46
2018-07-06T08:02:02.811Z,56.46
2018-07-06T08:04:31.321Z,56.59
2018-07-06T08:06:59.899Z,56.70
2018-07-06T08:09:28.690Z,56.79
2018-07-06T08:11:58.699Z,56.96
2018-07-06T08:14:27.267Z,56.23
2018-07-06T08:16:55.884Z,56.47
2018-07-06T08:19:24.633Z,56.33
2018-07-06T08:21:53.320Z,56.70
2018-07-06T08:24:22.091Z,56.71
2018-07-06T08:26:50.673Z,56.97
2018-07-06T08:29:19.092Z,56.33
2018-07-06T08:31:47.736Z,56.47
2018-07-06T08:34:27.307Z,56.96
2018-07-06T08:37:51.257Z,56.59
2018-07-06T08:40:20.487Z,56.55
2018-07-06T08:42:51.123Z,56.37
2018-07-06T08:45:19.638Z,56.76
2018-07-06T08:47:48.588Z,56.86
2018-07-06T08:50:17.544Z,56.79
2018-07-06T08:52:48.093Z,56.63
2018-07-06T08:55:17.313Z,56.78
2018-07-06T08:57:47.185Z,57.09
2018-07-06T09:00:16.083Z,57.11
2018-07-06T09:02:44.766Z,57.14
2018-07-06T09:05:14.187Z,56.95
2018-07-06T09:07:43.007Z,56.91
2018-07-06T09:10:11.610Z,57.39
2018-07-06T09:12:40.772Z,57.40
2018-07-06T09:15:10.227Z,57.28
2018-07-06T09:17:38.788Z,57.16
2018-07-06T09:20:07.572Z,56.70
2018-07-06T09:22:36.170Z,57.38
2018-07-06T09:25:06.251Z,57.32
2018-07-06T09:27:35.256Z,57.05
2018-07-06T09:30:03.637Z,57.53
2018-07-06T09:32:32.418Z,57.45
2018-07-06T09:35:02.535Z,57.91
2018-07-06T09:37:31.055Z,57.99
2018-07-06T09:39:59.509Z,57.74
2018-07-06T09:42:28.312Z,58.13
2018-07-06T09:44:56.911Z,58.08
2018-07-06T09:47:26.057Z,58.34
2018-07-06T09:49:54.663Z,58.13
2018-07-06T09:52:24.177Z,57.81
2018-07-06T09:55:02.114Z,57.70
2018-07-06T09:57:30.973Z,57.51
2018-07-06T09:59:59.851Z,57.18
2018-07-06T10:02:33.307Z,57.52
2018-07-06T10:05:04.201Z,57.73
2018-07-06T10:07:34.758Z,56.97
2018-07-06T10:10:04.954Z,57.38
2018-07-06T10:12:34.787Z,57.67
2018-07-06T10:15:11.737Z,57.06
2018-07-06T10:17:40.147Z,57.33
2018-07-06T10:20:08.644Z,56.71
2018-07-06T10:22:37.086Z,56.31
2018-07-06T10:25:05.766Z,56.46
2018-07-06T10:27:43.245Z,56.31
2018-07-06T10:30:21.777Z,56.08
2018-07-06T10:32:50.220Z,56.92
2018-07-06T10:35:18.809Z,56.70
2018-07-06T10:37:47.259Z,56.55
2018-07-06T10:40:15.744Z,56.55
2018-07-06T10:42:45.127Z,56.27
2018-07-06T10:45:13.541Z,56.67
2018-07-06T10:47:42.199Z,57.21
2018-07-06T10:50:10.712Z,56.69
2018-07-06T10:52:39.339Z,57.20
2018-07-06T10:55:08.089Z,57.24
2018-07-06T10:57:36.476Z,56.89
2018-07-06T11:00:05.064Z,57.66
2018-07-06T11:02:33.465Z,57.32
2018-07-06T11:05:01.971Z,57.70
2018-07-06T11:07:30.308Z,58.03
2018-07-06T11:09:59.661Z,58.15
2018-07-06T11:12:28.316Z,57.06
2018-07-06T11:14:58.569Z,57.54
2018-07-06T11:17:27.525Z,57.33
2018-07-06T11:19:56.725Z,56.78
2018-07-06T11:22:26.817Z,56.99
2018-07-06T11:24:55.647Z,56.11
2018-07-06T11:27:25.928Z,55.96
2018-07-06T11:29:54.399Z,55.35
2018-07-06T11:32:22.940Z,54.92
2018-07-06T11:34:52.009Z,55.39
2018-07-06T11:37:20.645Z,55.71
2018-07-06T11:39:50.073Z,55.51
2018-07-06T11:42:18.733Z,55.54
2018-07-06T11:44:47.161Z,55.42
2018-07-06T11:47:15.929Z,55.20
2018-07-06T11:49:44.391Z,54.84
2018-07-06T11:52:12.913Z,54.63
2018-07-06T11:54:41.362Z,54.47
2018-07-06T11:57:09.843Z,53.97
2018-07-06T11:59:38.511Z,53.46
2018-07-06T12:02:07.029Z,53.35
2018-07-06T12:04:35.572Z,53.35
2018-07-06T12:07:04.822Z,53.73
2018-07-06T12:09:33.491Z,53.53
2018-07-06T12:12:02.725Z,54.01
2018-07-06T12:14:31.230Z,53.63
2018-07-06T12:17:04.867Z,53.79
2018-07-06T12:19:33.397Z,53.41
2018-07-06T12:22:01.925Z,53.26
2018-07-06T12:24:30.429Z,53.26
2018-07-06T12:26:58.995Z,52.82
2018-07-06T12:29:28.493Z,53.16
2018-07-06T12:31:56.910Z,53.46
2018-07-06T12:34:25.517Z,52.75
2018-07-06T12:36:54.105Z,52.84
2018-07-06T12:39:22.530Z,53.16
2018-07-06T12:41:51.429Z,52.39
2018-07-06T12:44:19.841Z,51.80
2018-07-06T12:46:48.294Z,50.43
2018-07-06T12:49:16.876Z,49.97
2018-07-06T12:51:45.336Z,49.72
2018-07-06T12:54:13.967Z,49.11
2018-07-06T12:56:42.889Z,47.94
2018-07-06T12:59:11.350Z,47.30
2018-07-06T13:01:39.905Z,47.09
2018-07-06T13:04:08.391Z,46.68
2018-07-06T13:06:36.889Z,47.63
2018-07-06T13:09:05.747Z,47.55
2018-07-06T13:11:34.451Z,48.00
2018-07-06T13:14:02.905Z,48.84
2018-07-06T13:16:31.217Z,48.63
2018-07-06T13:19:00.273Z,49.03
2018-07-06T13:21:28.663Z,50.18
2018-07-06T13:23:57.299Z,50.20
2018-07-06T13:26:26.249Z,48.58
2018-07-06T13:28:56.514Z,48.10
2018-07-06T13:31:25.078Z,47.71
2018-07-06T13:33:53.556Z,48.43
2018-07-06T13:36:21.993Z,48.06
2018-07-06T13:38:50.472Z,48.42
2018-07-06T13:41:19.083Z,48.74
2018-07-06T13:43:47.701Z,48.91
2018-07-06T13:46:16.170Z,50.16
2018-07-06T13:48:44.645Z,50.58
2018-07-06T13:51:13.143Z,51.09
2018-07-06T13:53:41.923Z,50.79
2018-07-06T13:56:11.179Z,50.91
2018-07-06T13:58:39.604Z,50.79
2018-07-06T14:01:08.657Z,49.86
2018-07-06T14:03:37.482Z,49.27
2018-07-06T14:06:06.179Z,49.23
2018-07-06T14:08:35.242Z,48.32
2018-07-06T14:11:03.803Z,48.92
2018-07-06T14:13:32.470Z,48.60
2018-07-06T14:16:01.530Z,48.70
2018-07-06T14:18:30.271Z,48.74
2018-07-06T14:20:58.871Z,49.73
2018-07-06T14:23:27.473Z,49.80
2018-07-06T14:25:56.031Z,49.00
2018-07-06T14:28:24.510Z,49.75
2018-07-06T14:30:53.066Z,49.40
2018-07-06T14:33:22.096Z,49.02
2018-07-06T14:35:50.810Z,49.49
2018-07-06T14:38:19.282Z,48.54
2018-07-06T14:40:47.731Z,47.99
2018-07-06T14:43:19.480Z,47.78
2018-07-06T14:45:48.381Z,47.28
2018-07-06T14:48:16.809Z,48.16
2018-07-06T14:50:45.296Z,48.27
2018-07-06T14:53:14.067Z,48.01
2018-07-06T14:55:42.713Z,48.57
2018-07-06T14:58:11.848Z,48.49
2018-07-06T15:00:40.351Z,48.41
2018-07-06T15:03:10.539Z,47.68
2018-07-06T15:05:41.520Z,48.05
2018-07-06T15:08:10.193Z,47.46
2018-07-06T15:10:38.711Z,47.31
2018-07-06T15:13:07.379Z,47.69
2018-07-06T15:17:05.231Z,47.36
2018-07-06T15:19:33.875Z,47.28
2018-07-06T15:22:02.525Z,46.91
2018-07-06T15:24:31.073Z,46.41
2018-07-06T15:27:00.023Z,45.66
2018-07-06T15:29:28.865Z,45.16
2018-07-06T15:31:57.276Z,45.79
2018-07-06T15:34:25.818Z,45.60
2018-07-06T15:36:54.460Z,45.10
2018-07-06T15:39:23.640Z,45.05
2018-07-06T15:41:52.336Z,45.05
2018-07-06T15:44:20.905Z,43.93
2018-07-06T15:46:49.948Z,43.97
2018-07-06T15:49:18.680Z,43.02
2018-07-06T15:51:47.193Z,43.53
2018-07-06T15:54:15.971Z,43.88
2018-07-06T15:56:44.605Z,43.48
2018-07-06T15:59:13.145Z,43.26
2018-07-06T16:01:41.861Z,42.28
2018-07-06T16:04:10.512Z,42.89
2018-07-06T16:06:39.129Z,42.49
2018-07-06T16:09:07.770Z,42.71
2018-07-06T16:11:36.315Z,42.38
2018-07-06T16:14:04.907Z,42.30
2018-07-06T16:16:33.483Z,42.89
2018-07-06T16:19:02.039Z,42.90
2018-07-06T16:21:30.664Z,42.61
2018-07-06T16:23:59.276Z,42.29
2018-07-06T16:26:28.096Z,43.08
2018-07-06T16:28:57.130Z,43.08
2018-07-06T16:31:25.710Z,43.34
2018-07-06T16:33:54.556Z,43.76
2018-07-06T16:36:23.237Z,43.03
2018-07-06T16:38:51.866Z,42.88
2018-07-06T16:41:21.930Z,43.27
2018-07-06T16:43:50.409Z,43.50
2018-07-06T16:46:18.970Z,43.48
2018-07-06T16:48:48.612Z,43.50
2018-07-06T16:51:17.328Z,43.75
2018-07-06T16:53:45.905Z,44.61
2018-07-06T16:56:14.644Z,44.99
2018-07-06T16:58:44.638Z,44.65
2018-07-06T17:01:13.317Z,45.23
2018-07-06T17:03:42.930Z,44.76
2018-07-06T17:06:11.879Z,45.38
2018-07-06T17:08:40.739Z,45.57
2018-07-06T17:11:10.637Z,45.29
2018-07-06T17:13:39.628Z,45.20
2018-07-06T17:16:08.883Z,45.48
2018-07-06T17:18:37.634Z,45.24
2018-07-06T17:21:06.783Z,45.66
2018-07-06T17:23:36.268Z,45.76
2018-07-06T17:26:27.479Z,45.13
2018-07-06T17:28:56.258Z,45.48
2018-07-06T17:31:26.193Z,45.75
2018-07-06T17:33:57.377Z,45.67
2018-07-06T17:36:27.927Z,45.84
2018-07-06T17:38:57.271Z,45.53
2018-07-06T17:41:26.155Z,46.09
2018-07-06T17:43:56.964Z,45.36
2018-07-06T17:46:26.087Z,45.37
2018-07-06T17:48:55.394Z,44.78
2018-07-06T17:51:24.541Z,44.87
2018-07-06T17:53:59.135Z,44.57
2018-07-06T17:56:33.171Z,45.21
2018-07-06T17:59:20.838Z,44.56
2018-07-06T18:31:43.712Z,45.03
2018-07-06T18:34:13.658Z,44.62
2018-07-06T18:36:53.206Z,45.15
2018-07-06T18:39:23.160Z,44.24
2018-07-06T18:41:53.720Z,44.56
2018-07-06T18:44:23.496Z,44.57
2018-07-06T18:49:36.574Z,44.91
2018-07-06T18:52:16.854Z,44.46
2018-07-06T18:54:47.753Z,44.28
2018-07-06T18:57:22.290Z,44.59
2018-07-06T18:59:52.486Z,44.00
2018-07-06T19:02:28.283Z,44.62
2018-07-06T19:04:59.158Z,44.28
2018-07-06T19:07:30.764Z,44.73
2018-07-06T19:10:01.321Z,45.20
2018-07-06T19:12:31.884Z,44.69
2018-07-06T19:15:01.093Z,48.00
2018-07-06T19:17:30.110Z,45.62
2018-07-06T19:19:58.932Z,45.05
2018-07-06T19:22:28.038Z,45.17
2018-07-06T19:24:56.836Z,45.26
2018-07-06T19:27:27.079Z,45.43
2018-07-06T19:29:56.153Z,45.45
2018-07-06T19:32:25.006Z,45.31
2018-07-06T19:34:54.343Z,45.20
2018-07-06T19:37:23.434Z,44.95
2018-07-06T19:39:53.414Z,45.54
2018-07-06T19:42:23.878Z,45.67
2018-07-06T19:44:52.924Z,45.67
2018-07-06T19:47:22.123Z,45.64
2018-07-06T19:49:51.081Z,44.88
2018-07-06T19:52:20.270Z,45.24
2018-07-06T19:54:50.713Z,44.95
2018-07-06T19:57:33.389Z,45.33
2018-07-06T20:00:02.988Z,45.11
2018-07-06T20:02:32.214Z,44.97
2018-07-06T20:05:02.142Z,45.43
2018-07-06T20:07:32.733Z,44.88
2018-07-06T20:10:02.508Z,45.11
2018-07-06T20:12:31.558Z,45.98
2018-07-06T20:15:02.307Z,45.38
2018-07-06T20:17:33.864Z,45.67
2018-07-06T20:20:03.333Z,44.86
2018-07-06T20:22:32.433Z,45.48
2018-07-06T20:25:05.644Z,45.27
2018-07-06T20:27:34.658Z,45.14
2018-07-06T20:30:03.719Z,45.26
2018-07-06T20:32:34.370Z,45.61
2018-07-06T20:35:04.903Z,45.00
2018-07-06T20:37:34.888Z,45.70
2018-07-06T20:40:19.072Z,45.00
2018-07-06T20:45:51.503Z,45.15
2018-07-06T20:48:21.212Z,45.46
2018-07-06T20:50:51.863Z,45.35
2018-07-06T20:53:21.443Z,45.21
2018-07-06T20:56:03.105Z,45.05
2018-07-06T20:58:40.927Z,44.04
2018-07-06T21:01:10.839Z,43.79
2018-07-06T21:03:40.905Z,43.47
2018-07-06T21:06:18.095Z,43.49
2018-07-06T21:08:48.017Z,42.69
2018-07-06T21:11:22.132Z,42.49
2018-07-06T21:13:51.847Z,42.37
2018-07-06T21:16:22.160Z,42.07
2018-07-06T21:18:53.560Z,42.06
2018-07-06T21:21:24.671Z,41.87
2018-07-06T21:23:54.938Z,41.81
2018-07-06T21:26:37.715Z,41.30
2018-07-06T21:29:06.740Z,41.71
2018-07-06T21:31:46.455Z,40.80
2018-07-06T21:34:15.748Z,41.04
2018-07-06T21:36:47.056Z,40.60
2018-07-06T21:39:16.044Z,40.52
2018-07-06T21:41:50.193Z,40.00
2018-07-06T21:44:19.947Z,39.51
2018-07-06T21:46:50.484Z,39.59
2018-07-06T21:49:20.494Z,39.75
2018-07-06T21:51:49.734Z,39.41
2018-07-06T21:54:18.629Z,39.09
2018-07-06T21:56:49.844Z,39.03
2018-07-06T21:59:21.154Z,38.72
2018-07-06T22:01:50.627Z,38.76
2018-07-06T22:04:20.623Z,38.87
2018-07-06T22:07:12.635Z,38.57
2018-07-06T22:09:45.017Z,39.01
2018-07-06T22:12:15.420Z,38.87
2018-07-06T22:14:48.042Z,38.90
2018-07-06T22:17:22.051Z,39.29
2018-07-06T22:19:51.522Z,38.80
2018-07-06T22:22:22.822Z,39.23
2018-07-06T22:24:53.008Z,39.49
2018-07-06T22:27:44.134Z,39.66
2018-07-06T22:30:13.450Z,39.12
2018-07-06T22:32:46.926Z,38.30
2018-07-06T22:35:22.155Z,38.38
2018-07-06T22:37:51.180Z,38.90
2018-07-06T22:40:20.823Z,39.00
2018-07-06T22:42:49.815Z,38.32
2018-07-06T22:45:18.318Z,38.57
2018-07-06T22:47:47.084Z,38.69
2018-07-06T22:50:15.606Z,39.05
2018-07-06T22:52:44.212Z,38.22
2018-07-06T22:55:13.283Z,38.29
2018-07-06T22:57:41.976Z,38.49
2018-07-06T23:00:10.822Z,38.55
2018-07-06T23:02:41.208Z,38.48
2018-07-06T23:05:12.997Z,37.50
2018-07-06T23:07:41.654Z,37.08
2018-07-06T23:10:10.166Z,37.33
2018-07-06T23:12:39.596Z,36.74
2018-07-06T23:15:08.734Z,37.10
2018-07-06T23:17:37.580Z,36.50
2018-07-06T23:20:09.058Z,36.42
2018-07-06T23:23:11.582Z,36.24
2018-07-06T23:25:42.164Z,36.46
2018-07-06T23:28:11.002Z,35.86
2018-07-06T23:30:39.536Z,35.65
2018-07-06T23:33:08.728Z,36.23
2018-07-06T23:35:37.440Z,35.88
2018-07-06T23:38:06.036Z,35.85
2018-07-06T23:40:34.434Z,35.87
2018-07-06T23:43:02.946Z,35.25
2018-07-06T23:45:31.742Z,35.52
2018-07-06T23:48:00.455Z,35.50
2018-07-06T23:50:29.324Z,34.64
2018-07-06T23:52:58.098Z,34.88
2018-07-06T23:55:26.720Z,35.17
2018-07-06T23:57:55.284Z,34.15
